createdAt,value
2018-09-18T00:02:05.569Z,71.26
2018-09-18T00:04:34.360Z,71.58
2018-09-18T00:07:03.066Z,71.51
2018-09-18T00:09:32.016Z,71.34
2018-09-18T00:12:00.848Z,71.51
2018-09-18T00:14:29.474Z,71.68
2018-09-18T00:16:58.363Z,71.44
2018-09-18T00:19:26.922Z,71.43
2018-09-18T00:21:55.547Z,71.85
2018-09-18T00:24:24.336Z,71.83
2018-09-18T00:26:52.862Z,71.60
2018-09-18T00:29:21.334Z,71.75
2018-09-18T00:31:50.188Z,71.34
2018-09-18T00:34:18.622Z,71.60
2018-09-18T00:36:47.111Z,71.91
2018-09-18T00:39:15.649Z,71.79
2018-09-18T00:41:44.087Z,72.02
2018-09-18T00:44:12.563Z,71.77
2018-09-18T00:46:41.843Z,71.84
2018-09-18T00:49:10.281Z,71.91
2018-09-18T00:51:39.785Z,71.96
2018-09-18T00:54:08.969Z,72.23
2018-09-18T00:56:37.710Z,71.55
2018-09-18T00:59:06.175Z,72.17
2018-09-18T01:01:34.721Z,71.78
2018-09-18T01:04:03.204Z,71.71
2018-09-18T01:06:32.320Z,71.99
2018-09-18T01:09:01.069Z,72.30
2018-09-18T01:11:29.784Z,71.99
2018-09-18T01:13:58.684Z,72.05
2018-09-18T01:16:27.360Z,72.54
2018-09-18T01:18:55.861Z,72.32
2018-09-18T01:21:24.378Z,72.36
2018-09-18T01:23:53.094Z,72.65
2018-09-18T01:26:21.653Z,72.57
2018-09-18T01:28:50.152Z,72.87
2018-09-18T01:31:18.659Z,73.07
2018-09-18T01:33:47.358Z,73.44
2018-09-18T01:36:15.923Z,73.23
2018-09-18T01:38:44.665Z,73.37
2018-09-18T01:41:13.105Z,73.43
2018-09-18T01:43:41.625Z,73.44
2018-09-18T01:46:10.350Z,73.92
2018-09-18T01:48:39.042Z,73.99
2018-09-18T01:51:07.863Z,73.90
2018-09-18T01:53:36.793Z,73.73
2018-09-18T01:56:05.529Z,74.30
2018-09-18T01:58:33.984Z,73.96
2018-09-18T02:01:02.765Z,74.05
2018-09-18T02:03:31.278Z,73.97
2018-09-18T02:05:59.760Z,74.00
2018-09-18T02:08:28.566Z,74.17
2018-09-18T02:10:57.070Z,74.08
2018-09-18T02:13:25.531Z,73.88
2018-09-18T02:15:54.861Z,73.98
2018-09-18T02:18:23.401Z,74.05
2018-09-18T02:20:51.857Z,74.32
2018-09-18T02:23:20.718Z,74.10
2018-09-18T02:25:49.158Z,73.71
2018-09-18T02:28:17.725Z,73.89
2018-09-18T02:30:46.466Z,73.96
2018-09-18T02:33:14.895Z,74.05
2018-09-18T02:35:43.358Z,73.80
2018-09-18T02:38:11.917Z,73.62
2018-09-18T02:40:40.381Z,73.53
2018-09-18T02:43:08.857Z,73.75
2018-09-18T02:45:38.269Z,73.71
2018-09-18T02:48:06.743Z,74.05
2018-09-18T02:50:35.370Z,73.90
2018-09-18T02:53:04.221Z,74.13
2018-09-18T02:55:32.702Z,73.99
2018-09-18T02:58:01.235Z,73.90
2018-09-18T03:00:30.596Z,73.91
2018-09-18T03:02:59.081Z,73.99
2018-09-18T03:05:27.553Z,74.07
2018-09-18T03:07:56.113Z,74.27
2018-09-18T03:10:24.566Z,74.05
2018-09-18T03:12:53.117Z,73.70
2018-09-18T03:15:21.738Z,74.11
2018-09-18T03:17:50.306Z,74.12
2018-09-18T03:20:18.773Z,74.52
2018-09-18T03:22:47.378Z,74.19
2018-09-18T03:25:16.050Z,74.22
2018-09-18T03:27:44.517Z,74.68
2018-09-18T03:30:13.290Z,74.62
2018-09-18T03:32:41.842Z,74.31
2018-09-18T03:35:10.398Z,74.40
2018-09-18T03:37:39.133Z,74.57
2018-09-18T03:40:08.221Z,74.75
2018-09-18T03:42:36.702Z,74.94
2018-09-18T03:45:05.534Z,74.41
2018-09-18T03:47:33.969Z,74.97
2018-09-18T03:50:02.475Z,74.96
2018-09-18T03:52:31.469Z,74.98
2018-09-18T03:54:59.965Z,74.81
2018-09-18T03:57:28.454Z,75.03
2018-09-18T03:59:57.198Z,74.82
2018-09-18T04:02:25.647Z,75.03
2018-09-18T04:04:54.141Z,75.09
2018-09-18T04:07:22.946Z,75.05
2018-09-18T04:09:51.467Z,74.89
2018-09-18T04:12:19.927Z,75.08
2018-09-18T04:14:48.705Z,75.17
2018-09-18T04:17:17.149Z,75.53
2018-09-18T04:19:46.040Z,75.37
2018-09-18T04:22:14.849Z,74.98
2018-09-18T04:24:43.294Z,75.04
2018-09-18T04:27:11.761Z,75.38
2018-09-18T04:29:40.510Z,75.29
2018-09-18T04:32:09.013Z,75.45
2018-09-18T04:34:37.758Z,75.22
2018-09-18T04:37:07.440Z,75.09
2018-09-18T04:39:42.333Z,75.45
2018-09-18T04:42:14.018Z,75.34
2018-09-18T04:44:42.481Z,75.26
2018-09-18T04:47:11.144Z,75.28
2018-09-18T04:49:39.681Z,75.24
2018-09-18T04:52:08.940Z,75.37
2018-09-18T04:54:38.066Z,75.46
2018-09-18T04:57:06.949Z,75.60
2018-09-18T04:59:38.273Z,75.33
2018-09-18T05:02:06.970Z,75.54
2018-09-18T05:04:35.521Z,75.60
2018-09-18T05:07:03.952Z,75.86
2018-09-18T05:09:32.390Z,75.99
2018-09-18T05:12:01.165Z,75.63
2018-09-18T05:14:29.581Z,75.50
2018-09-18T05:16:58.002Z,75.48
2018-09-18T05:19:26.873Z,75.51
2018-09-18T05:21:55.692Z,75.27
2018-09-18T05:24:24.129Z,75.38
2018-09-18T05:26:52.685Z,74.92
2018-09-18T05:29:21.155Z,75.05
2018-09-18T05:31:49.611Z,75.00
2018-09-18T05:34:18.333Z,75.05
2018-09-18T05:36:46.773Z,75.03
2018-09-18T05:39:15.310Z,74.84
2018-09-18T05:41:43.845Z,74.52
2018-09-18T05:44:12.282Z,74.42
2018-09-18T05:46:40.725Z,74.11
2018-09-18T05:49:09.517Z,74.04
2018-09-18T05:51:38.095Z,74.05
2018-09-18T05:54:06.583Z,73.81
2018-09-18T05:56:35.517Z,73.78
2018-09-18T05:59:03.999Z,73.67
2018-09-18T06:01:32.453Z,73.51
2018-09-18T06:04:02.058Z,73.44
2018-09-18T06:06:30.817Z,73.26
2018-09-18T06:08:59.237Z,73.00
2018-09-18T06:11:28.021Z,72.65
2018-09-18T06:13:57.005Z,72.52
2018-09-18T06:16:25.497Z,72.67
2018-09-18T06:18:54.171Z,72.30
2018-09-18T06:21:22.629Z,72.13
2018-09-18T06:23:51.290Z,71.68
2018-09-18T06:26:20.237Z,71.78
2018-09-18T06:28:48.920Z,71.79
2018-09-18T06:31:17.597Z,71.44
2018-09-18T06:33:46.258Z,71.41
2018-09-18T06:36:14.694Z,71.35
2018-09-18T06:38:43.159Z,71.15
2018-09-18T06:41:11.734Z,70.85
2018-09-18T06:43:40.182Z,70.68
2018-09-18T06:46:09.485Z,70.88
2018-09-18T06:48:38.091Z,70.68
2018-09-18T06:51:06.687Z,70.40
2018-09-18T06:53:35.660Z,70.15
2018-09-18T06:56:04.321Z,70.00
2018-09-18T06:58:32.833Z,69.85
2018-09-18T07:01:02.563Z,69.69
2018-09-18T07:03:31.313Z,69.51
2018-09-18T07:06:06.137Z,69.46
2018-09-18T07:08:34.725Z,69.32
2018-09-18T07:11:03.885Z,68.79
2018-09-18T07:13:32.337Z,68.55
2018-09-18T07:16:01.477Z,68.58
2018-09-18T07:18:29.946Z,68.13
2018-09-18T07:20:58.411Z,67.85
2018-09-18T07:23:27.593Z,67.38
2018-09-18T07:25:56.165Z,67.59
2018-09-18T07:28:24.650Z,67.38
2018-09-18T07:30:53.301Z,67.59
2018-09-18T07:33:21.807Z,67.92
2018-09-18T07:35:50.254Z,68.01
2018-09-18T07:38:19.054Z,68.23
2018-09-18T07:40:47.549Z,68.23
2018-09-18T07:43:17.173Z,68.67
2018-09-18T07:45:46.053Z,68.60
2018-09-18T07:48:14.915Z,69.12
2018-09-18T07:50:43.354Z,69.23
2018-09-18T07:53:12.114Z,69.54
2018-09-18T07:55:40.845Z,69.74
2018-09-18T07:58:09.313Z,69.60
2018-09-18T08:00:38.990Z,69.78
2018-09-18T08:03:07.765Z,69.98
2018-09-18T08:05:36.736Z,70.01
2018-09-18T08:08:05.421Z,70.59
2018-09-18T08:10:34.429Z,70.47
2018-09-18T08:13:02.886Z,70.55
2018-09-18T08:15:31.500Z,70.79
2018-09-18T08:17:59.974Z,70.49
2018-09-18T08:20:28.402Z,70.56
2018-09-18T08:22:57.271Z,70.90
2018-09-18T08:25:26.113Z,71.10
2018-09-18T08:27:54.643Z,70.97
2018-09-18T08:30:23.345Z,70.90
2018-09-18T08:32:51.850Z,71.17
2018-09-18T08:35:20.308Z,71.26
2018-09-18T08:37:49.049Z,70.74
2018-09-18T08:40:17.766Z,71.45
2018-09-18T08:42:46.190Z,70.97
2018-09-18T08:45:14.721Z,71.36
2018-09-18T08:47:43.296Z,70.83
2018-09-18T08:50:11.775Z,70.41
2018-09-18T08:52:40.778Z,70.54
2018-09-18T08:55:09.235Z,71.04
2018-09-18T08:57:38.404Z,71.04
2018-09-18T09:00:07.666Z,70.91
2018-09-18T09:02:36.258Z,71.75
2018-09-18T09:05:05.278Z,72.57
2018-09-18T09:07:33.955Z,72.47
2018-09-18T09:10:02.495Z,72.65
2018-09-18T09:12:31.073Z,72.72
2018-09-18T09:14:59.961Z,72.88
2018-09-18T09:17:28.315Z,72.88
2018-09-18T09:19:56.774Z,72.85
2018-09-18T09:22:25.719Z,73.09
2018-09-18T09:24:54.060Z,72.72
2018-09-18T09:27:22.489Z,72.38
2018-09-18T09:29:51.752Z,72.41
2018-09-18T09:32:20.205Z,72.10
2018-09-18T09:34:49.626Z,72.00
2018-09-18T09:37:18.575Z,72.49
2018-09-18T09:39:47.175Z,72.50
2018-09-18T09:42:15.656Z,72.00
2018-09-18T09:44:44.435Z,71.96
2018-09-18T09:47:13.167Z,72.02
2018-09-18T09:49:41.623Z,71.84
2018-09-18T09:52:10.158Z,71.23
2018-09-18T09:54:38.544Z,70.43
2018-09-18T09:57:07.227Z,69.99
2018-09-18T09:59:36.131Z,69.91
2018-09-18T10:02:09.774Z,69.62
2018-09-18T10:04:39.314Z,68.86
2018-09-18T10:07:08.800Z,68.38
2018-09-18T10:09:37.447Z,68.82
2018-09-18T10:12:06.122Z,67.90
2018-09-18T10:14:34.587Z,67.76
2018-09-18T10:17:03.481Z,68.00
2018-09-18T10:19:32.476Z,68.14
2018-09-18T10:22:00.859Z,68.39
2018-09-18T10:24:29.269Z,68.76
2018-09-18T10:26:58.067Z,68.01
2018-09-18T10:29:26.316Z,66.24
2018-09-18T10:31:55.141Z,66.20
2018-09-18T10:34:23.787Z,66.37
2018-09-18T10:36:52.683Z,65.94
2018-09-18T10:39:21.122Z,65.55
2018-09-18T10:41:49.813Z,65.82
2018-09-18T10:44:18.214Z,66.35
2018-09-18T10:46:46.941Z,65.88
2018-09-18T10:49:15.468Z,66.30
2018-09-18T10:51:43.955Z,65.86
2018-09-18T10:54:12.356Z,66.34
2018-09-18T10:56:41.230Z,65.98
2018-09-18T10:59:10.275Z,65.80
2018-09-18T11:01:38.671Z,66.01
2018-09-18T11:04:07.620Z,65.64
2018-09-18T11:06:36.025Z,65.01
2018-09-18T11:09:06.318Z,64.94
2018-09-18T11:11:35.253Z,64.62
2018-09-18T11:14:03.707Z,64.20
2018-09-18T11:16:32.094Z,64.36
2018-09-18T11:19:01.256Z,64.94
2018-09-18T11:21:30.059Z,64.78
2018-09-18T11:23:58.397Z,65.00
2018-09-18T11:26:27.319Z,65.16
2018-09-18T11:28:55.749Z,65.04
2018-09-18T11:31:24.161Z,65.85
2018-09-18T11:33:53.369Z,66.04
2018-09-18T11:36:21.764Z,65.97
2018-09-18T11:38:50.146Z,66.69
2018-09-18T11:41:19.087Z,65.61
2018-09-18T11:43:47.801Z,64.57
2018-09-18T11:46:16.219Z,63.89
2018-09-18T11:48:44.986Z,63.41
2018-09-18T11:51:13.399Z,63.12
2018-09-18T11:53:41.799Z,62.43
2018-09-18T11:56:11.514Z,61.39
2018-09-18T11:58:40.363Z,61.39
2018-09-18T12:01:08.742Z,60.77
2018-09-18T12:03:37.617Z,60.42
2018-09-18T12:06:06.663Z,59.76
2018-09-18T12:08:35.098Z,59.28
2018-09-18T12:11:03.935Z,59.00
2018-09-18T12:13:32.326Z,57.61
2018-09-18T12:16:00.724Z,56.75
2018-09-18T12:18:29.560Z,55.06
2018-09-18T12:20:58.319Z,54.51
2018-09-18T12:23:27.270Z,54.37
2018-09-18T12:25:56.144Z,53.57
2018-09-18T12:28:24.801Z,52.86
2018-09-18T12:30:53.190Z,52.37
2018-09-18T12:33:22.106Z,53.04
2018-09-18T12:35:50.844Z,51.97
2018-09-18T12:38:19.157Z,50.38
2018-09-18T12:40:47.838Z,49.82
2018-09-18T12:43:16.218Z,49.94
2018-09-18T12:45:44.606Z,48.66
2018-09-18T12:48:13.279Z,47.92
2018-09-18T12:50:41.878Z,47.86
2018-09-18T12:53:11.299Z,48.14
2018-09-18T12:55:39.908Z,48.33
2018-09-18T12:58:09.400Z,48.12
2018-09-18T13:00:37.806Z,48.02
2018-09-18T13:03:06.312Z,47.93
2018-09-18T13:05:34.806Z,48.22
2018-09-18T13:08:03.307Z,46.24
2018-09-18T13:10:31.776Z,46.38
2018-09-18T13:13:00.452Z,45.30
2018-09-18T13:15:28.839Z,45.17
2018-09-18T13:17:57.391Z,45.98
2018-09-18T13:20:25.792Z,44.94
2018-09-18T13:22:54.527Z,46.41
2018-09-18T13:25:23.254Z,46.82
2018-09-18T13:27:51.678Z,46.04
2018-09-18T13:30:20.373Z,45.63
2018-09-18T13:32:49.147Z,44.45
2018-09-18T13:35:17.536Z,43.72
2018-09-18T13:37:46.243Z,43.24
2018-09-18T13:40:15.391Z,44.35
2018-09-18T13:42:44.132Z,44.67
2018-09-18T13:45:12.523Z,43.98
2018-09-18T13:47:42.184Z,44.36
2018-09-18T13:50:10.872Z,43.87
2018-09-18T13:52:39.923Z,43.58
2018-09-18T13:55:08.703Z,43.61
2018-09-18T13:57:37.225Z,43.19
2018-09-18T14:00:06.199Z,43.18
2018-09-18T14:02:35.397Z,43.22
2018-09-18T14:05:03.951Z,42.30
2018-09-18T14:07:32.409Z,41.67
2018-09-18T14:10:01.591Z,41.05
2018-09-18T14:12:29.977Z,41.21
2018-09-18T14:14:58.500Z,41.40
2018-09-18T14:17:27.194Z,41.88
2018-09-18T14:19:55.603Z,41.36
2018-09-18T14:22:24.564Z,41.55
2018-09-18T14:24:53.819Z,40.13
2018-09-18T14:27:22.205Z,39.83
2018-09-18T14:29:50.587Z,40.71
2018-09-18T14:32:20.021Z,40.30
2018-09-18T14:34:48.559Z,39.71
2018-09-18T14:37:17.048Z,39.26
2018-09-18T14:39:45.765Z,39.72
2018-09-18T14:42:14.152Z,39.91
2018-09-18T14:44:42.531Z,40.96
2018-09-18T14:47:11.402Z,40.49
2018-09-18T14:49:39.860Z,40.70
2018-09-18T14:52:09.807Z,40.41
2018-09-18T14:54:38.398Z,40.61
2018-09-18T14:57:06.799Z,41.29
2018-09-18T14:59:35.275Z,41.69
2018-09-18T15:02:04.076Z,41.17
2018-09-18T15:04:32.499Z,41.64
2018-09-18T15:07:01.032Z,40.49
2018-09-18T15:09:29.877Z,40.48
2018-09-18T15:11:58.978Z,41.27
2018-09-18T15:14:27.388Z,41.09
2018-09-18T15:16:56.947Z,41.67
2018-09-18T15:19:25.346Z,40.96
2018-09-18T15:21:53.752Z,41.90
2018-09-18T15:24:22.626Z,42.64
2018-09-18T15:26:51.130Z,42.78
2018-09-18T15:29:19.537Z,43.48
2018-09-18T15:31:48.037Z,44.24
2018-09-18T15:34:17.076Z,44.74
2018-09-18T15:36:45.474Z,44.15
2018-09-18T15:39:14.140Z,45.27
2018-09-18T15:41:42.958Z,45.84
2018-09-18T15:44:11.839Z,47.10
2018-09-18T15:46:40.882Z,46.96
2018-09-18T15:49:09.648Z,48.02
2018-09-18T15:51:38.270Z,48.23
2018-09-18T15:54:07.189Z,48.74
2018-09-18T15:56:35.629Z,49.31
2018-09-18T15:59:04.078Z,50.03
2018-09-18T16:01:33.111Z,50.13
2018-09-18T16:04:01.628Z,50.45
2018-09-18T16:06:30.166Z,50.63
2018-09-18T16:08:58.747Z,50.91
2018-09-18T16:11:27.122Z,51.51
2018-09-18T16:13:55.555Z,51.24
2018-09-18T16:16:24.059Z,51.75
2018-09-18T16:18:52.429Z,52.17
2018-09-18T16:21:20.814Z,52.22
2018-09-18T16:23:49.350Z,52.64
2018-09-18T16:26:17.740Z,52.94
2018-09-18T16:28:46.295Z,52.88
2018-09-18T16:31:15.021Z,53.17
2018-09-18T16:33:43.394Z,53.62
2018-09-18T16:36:11.774Z,54.34
2018-09-18T16:38:40.451Z,54.16
2018-09-18T16:41:08.898Z,54.28
2018-09-18T16:43:37.756Z,54.81
2018-09-18T16:46:07.244Z,54.89
2018-09-18T16:48:35.650Z,55.35
2018-09-18T16:51:04.246Z,55.53
2018-09-18T16:53:33.170Z,55.53
2018-09-18T16:56:01.564Z,56.11
2018-09-18T16:58:30.026Z,55.83
2018-09-18T17:00:59.221Z,56.33
2018-09-18T17:03:27.622Z,56.57
2018-09-18T17:05:56.320Z,57.19
2018-09-18T17:08:24.858Z,57.33
2018-09-18T17:10:53.426Z,57.65
2018-09-18T17:13:21.893Z,58.00
2018-09-18T17:15:50.726Z,58.13
2018-09-18T17:18:19.178Z,58.32
2018-09-18T17:20:47.826Z,58.30
2018-09-18T17:23:16.327Z,58.37
2018-09-18T17:25:45.271Z,57.85
2018-09-18T17:28:13.740Z,58.07
2018-09-18T17:30:43.449Z,58.15
2018-09-18T17:33:11.791Z,58.46
2018-09-18T17:35:40.245Z,58.66
2018-09-18T17:38:09.181Z,58.57
2018-09-18T17:40:37.584Z,58.37
2018-09-18T17:43:05.980Z,58.80
2018-09-18T17:45:34.651Z,59.08
2018-09-18T17:48:03.059Z,59.14
2018-09-18T17:50:31.447Z,59.18
2018-09-18T17:53:00.144Z,58.97
2018-09-18T17:55:28.543Z,59.15
2018-09-18T17:57:56.962Z,59.30
2018-09-18T18:00:25.794Z,59.77
2018-09-18T18:02:54.233Z,59.38
2018-09-18T18:05:22.656Z,59.93
2018-09-18T18:07:51.134Z,59.77
2018-09-18T18:10:19.540Z,59.59
2018-09-18T18:12:47.915Z,59.98
2018-09-18T18:15:16.410Z,59.90
2018-09-18T18:17:44.825Z,59.80
2018-09-18T18:20:13.287Z,60.08
2018-09-18T18:22:42.585Z,60.20
2018-09-18T18:25:11.528Z,60.36
2018-09-18T18:27:40.327Z,60.29
2018-09-18T18:30:08.824Z,60.35
2018-09-18T18:32:37.306Z,60.51
2018-09-18T18:35:05.867Z,60.40
2018-09-18T18:37:34.500Z,59.85
2018-09-18T18:40:02.902Z,59.82
2018-09-18T18:42:31.383Z,60.08
2018-09-18T18:45:00.107Z,59.91
2018-09-18T18:47:28.748Z,60.21
2018-09-18T18:49:57.186Z,60.01
2018-09-18T18:52:25.710Z,60.43
2018-09-18T18:54:54.108Z,60.27
2018-09-18T18:57:22.496Z,59.74
2018-09-18T18:59:50.998Z,59.87
2018-09-18T19:02:19.550Z,60.08
2018-09-18T19:04:47.933Z,59.93
2018-09-18T19:07:16.730Z,60.34
2018-09-18T19:09:45.149Z,60.50
2018-09-18T19:12:13.545Z,60.53
2018-09-18T19:14:42.927Z,60.07
2018-09-18T19:17:11.803Z,60.49
2018-09-18T19:19:40.225Z,59.96
2018-09-18T19:22:09.067Z,59.89
2018-09-18T19:24:37.451Z,59.94
2018-09-18T19:27:05.849Z,60.42
2018-09-18T19:29:34.351Z,60.16
2018-09-18T19:32:02.831Z,60.34
2018-09-18T19:34:31.330Z,59.99
2018-09-18T19:37:00.336Z,60.14
2018-09-18T19:39:28.710Z,60.16
2018-09-18T19:41:57.119Z,59.79
2018-09-18T19:44:25.607Z,60.26
2018-09-18T19:46:54.010Z,59.95
2018-09-18T19:49:28.870Z,60.56
2018-09-18T19:51:57.374Z,60.61
2018-09-18T19:54:25.723Z,60.85
2018-09-18T19:56:54.325Z,60.60
2018-09-18T19:59:22.847Z,60.98
2018-09-18T20:01:51.208Z,60.73
2018-09-18T20:04:19.739Z,61.17
2018-09-18T20:06:48.130Z,61.18
2018-09-18T20:09:16.907Z,61.27
2018-09-18T20:11:45.544Z,61.40
2018-09-18T20:14:13.938Z,61.60
2018-09-18T20:16:43.145Z,61.50
2018-09-18T20:19:11.654Z,61.25
2018-09-18T20:21:40.637Z,61.71
2018-09-18T20:24:09.027Z,61.20
2018-09-18T20:26:37.627Z,61.66
2018-09-18T20:29:06.151Z,61.89
2018-09-18T20:31:34.532Z,61.99
2018-09-18T20:34:03.378Z,61.97
2018-09-18T20:36:32.015Z,61.92
2018-09-18T20:39:00.491Z,61.67
2018-09-18T20:41:29.578Z,62.04
2018-09-18T20:44:04.687Z,61.71
2018-09-18T20:46:33.575Z,62.07
2018-09-18T20:49:01.978Z,62.21
2018-09-18T20:51:30.692Z,61.66
2018-09-18T20:53:59.228Z,62.04
2018-09-18T20:56:27.747Z,62.19
2018-09-18T20:58:56.220Z,61.85
2018-09-18T21:01:25.173Z,62.31
2018-09-18T21:03:53.620Z,62.50
2018-09-18T21:06:22.077Z,61.98
2018-09-18T21:08:50.641Z,62.07
2018-09-18T21:11:19.118Z,62.26
2018-09-18T21:13:47.557Z,61.75
2018-09-18T21:16:16.410Z,61.86
2018-09-18T21:18:44.867Z,62.05
2018-09-18T21:21:13.297Z,61.44
2018-09-18T21:23:41.945Z,61.71
2018-09-18T21:26:13.554Z,61.25
2018-09-18T21:28:43.556Z,61.18
2018-09-18T21:31:12.064Z,60.94
2018-09-18T21:33:41.121Z,60.93
2018-09-18T21:36:10.805Z,60.60
2018-09-18T21:38:40.225Z,60.27
2018-09-18T21:41:08.665Z,60.27
2018-09-18T21:43:37.515Z,59.29
2018-09-18T21:46:05.910Z,58.75
2018-09-18T21:48:34.361Z,58.47
2018-09-18T21:51:03.106Z,57.90
2018-09-18T21:53:31.698Z,58.21
2018-09-18T21:56:00.141Z,57.78
2018-09-18T21:58:28.685Z,57.55
2018-09-18T22:00:57.205Z,57.71
2018-09-18T22:03:25.799Z,57.43
2018-09-18T22:05:54.730Z,56.76
2018-09-18T22:08:23.681Z,56.44
2018-09-18T22:10:52.175Z,56.70
2018-09-18T22:13:20.739Z,56.04
2018-09-18T22:15:49.173Z,56.01
2018-09-18T22:18:17.616Z,56.01
2018-09-18T22:20:46.407Z,55.52
2018-09-18T22:23:14.829Z,55.32
2018-09-18T22:25:43.325Z,55.53
2018-09-18T22:28:12.782Z,54.83
2018-09-18T22:30:41.249Z,54.68
2018-09-18T22:33:09.675Z,54.50
2018-09-18T22:35:38.436Z,54.62
2018-09-18T22:38:07.173Z,54.35
2018-09-18T22:40:36.133Z,54.46
2018-09-18T22:43:04.933Z,54.90
2018-09-18T22:45:33.360Z,54.37
2018-09-18T22:48:02.081Z,54.75
2018-09-18T22:50:30.974Z,54.49
2018-09-18T22:53:00.079Z,54.50
2018-09-18T22:55:28.805Z,54.79
2018-09-18T22:57:57.617Z,54.89
2018-09-18T23:00:26.103Z,55.07
2018-09-18T23:02:55.206Z,54.97
2018-09-18T23:05:24.074Z,55.30
2018-09-18T23:07:52.505Z,54.71
2018-09-18T23:10:21.452Z,54.76
2018-09-18T23:12:50.337Z,54.47
2018-09-18T23:15:18.866Z,54.38
2018-09-18T23:17:47.314Z,54.90
2018-09-18T23:20:16.222Z,55.10
2018-09-18T23:22:44.701Z,54.49
2018-09-18T23:25:13.214Z,55.22
2018-09-18T23:27:42.571Z,54.99
2018-09-18T23:30:11.690Z,54.94
2018-09-18T23:32:40.115Z,55.20
2018-09-18T23:35:08.920Z,55.69
2018-09-18T23:37:37.369Z,55.51
2018-09-18T23:40:05.848Z,56.19
2018-09-18T23:42:35.122Z,55.84
2018-09-18T23:45:03.593Z,56.42
2018-09-18T23:47:32.029Z,56.50
2018-09-18T23:50:00.624Z,56.27
2018-09-18T23:52:29.106Z,56.69
2018-09-18T23:54:57.544Z,56.68
2018-09-18T23:57:26.423Z,57.24
2018-09-18T23:59:55.173Z,56.98
